Box Elder, SD

5:52 AM MST on February 06, 2016 (GMT -0700)
Ellsworth Air Force Base | | Change Station
CLOSE
Current Station
Airport
Location: Ellsworth AFB,
Elevation: 3278 ft
Nearby Weather Stations
Active Advisory: High Wind Warning

Elev 3278 ft 44.15 °N, 103.10 °W | Updated 54 minutes ago

Partly Cloudy
Partly Cloudy
32 °F
Feels Like 24 °F
N
9
Wind Variable Wind from WSW

Today
High -- | Low -- °F
--% Chance of Precip.
Yesterday
High -- | Low -- °F
Precip. -- in
Pressure 30.09 in
Visibility 10.0 miles
Clouds Few 23000 ft
Windchill 24 °F
Dew Point 19 °F
Humidity 60%
Rainfall 0.00 in
Snow Depth Not available.
7:04 AM 5:08 PM
Waning Crescent, 6% visible
METAR KRCA 061158Z AUTO 25008KT 10SM FEW230 00/M07 A3001 RMK AO2 SLP190 T10021072 11001 21028 57015 $
Pressure 30.09 in
Visibility 10.0 miles
Clouds Few 23000 ft
Windchill 24 °F
Dew Point 19 °F
Humidity 60%
Rainfall 0.00 in
Snow Depth Not available.
7:04 AM 5:08 PM
Waning Crescent, 6% visible
METAR KRCA 061158Z AUTO 25008KT 10SM FEW230 00/M07 A3001 RMK AO2 SLP190 T10021072 11001 21028 57015 $

10-Day Weather Forecast

Almanac

Astronomy

Feb. 06, 2016 Rise Set
Actual Time
Civil Twilight
Nautical Twilight
Astronomical Twilight
Moon
Length of Visible Light
Length of Day
Tomorrow will be .
, % of the Moon is Illuminated

Today's Extremes

State Highs State Lows

Community

WunderPhotos

Upload Photos

1,890,954 photos uploaded!

WunderBlog® & News

Nearby

Air Quality

  Air Quality AQ Index Pollutant
Not available.

Snow Depth

Station Depth Elevation

Earthquake Activity

City Distance Mag. Time & Date
Minimum magnitude displayed is 2.5.

Coastal Water Temperatures

Place Temperature

Stations

Nearby Weather Stations

Station Location Temp. Windchill Dew Point Humidity Wind Precip. Elev Updated Type
                   

Watches & Warnings

High Wind Warning
Issued: 4:33 AM MST Feb. 6, 2016 – National Weather Service

... High Wind Warning remains in effect from 5 PM this afternoon
to 8 PM MST Sunday...

* timing... initial strong winds possible this evening... breezy
winds overnight... and the strongest winds Sunday morning
through Sunday evening.

* Winds... northwest 35 to 45 mph with gusts up to 70 mph.

* Impacts... the high winds can blow down large trees... and
damage roofs... small outbuildings... and signs. Sudden wind
gusts can cause drivers to lose control... especially in
lightweight or high profile vehicles. Strong winds can cause
blowing dust... reduced visibility... and flying debris.